Terminal Aerodrome Forecast
Issued by NWS

Home | Current Version | Previous Version | Text Only | Print | Product List | Glossary On
Versions: 1 2 3 4 5 6 7 8 9 10 11 12 13 14
000
FTUS46 KSEW 130700 AAA
TAFCLM
TAF AMD
KCLM 130727Z 1307/1406 VRB04KT 2SM BR BKN002
      TEMPO 1312/1316 1/2SM FG VV002
     FM131600 30008KT P6SM SCT150=

USA.gov is the U.S. government's official web portal to all federal, state and local government web resources and services.